Time;durP1;ratioP1;P1;durP2;ratioP2;P2;SDS_P1;SDS_P2;PMS_P1;PMS_P2;Temp;Humidity;BMP_temperature;BMP_pressure;BME280_temperature;BME280_humidity;BME280_pressure;Samples;Min_cycle;Max_cycle;Signal;HPM_P1;HPM_P2
2021/06/05 00:01:54;;;;;;;9.25;4.78;;;26.20;39.20;;;;;;5057822;28;20368;-71
2021/06/05 00:04:21;;;;;;;11.40;5.10;;;26.20;39.00;;;;;;5075972;28;20027;-72
2021/06/05 00:06:49;;;;;;;16.20;5.90;;;26.20;39.40;;;;;;5075675;28;20039;-71
2021/06/05 00:09:16;;;;;;;9.05;5.38;;;26.20;40.00;;;;;;5075669;28;20028;-72
2021/06/05 00:11:43;;;;;;;11.65;5.90;;;26.20;39.60;;;;;;5075912;28;20028;-72
2021/06/05 00:14:11;;;;;;;12.90;5.93;;;26.20;39.60;;;;;;5076251;28;20056;-72
2021/06/05 00:16:42;;;;;;;10.13;6.15;;;26.20;39.50;;;;;;5076287;28;20037;-71
2021/06/05 00:19:11;;;;;;;11.77;6.00;;;26.10;40.20;;;;;;5058959;28;20341;-72
2021/06/05 00:21:36;;;;;;;12.38;5.97;;;26.10;39.80;;;;;;5076163;28;20044;-72
2021/06/05 00:24:03;;;;;;;9.48;6.13;;;26.10;39.50;;;;;;5058435;28;20039;-72
2021/06/05 00:26:28;;;;;;;9.80;6.03;;;26.00;39.40;;;;;;5057674;28;20091;-71
2021/06/05 00:28:54;;;;;;;11.43;6.38;;;26.10;39.60;;;;;;5057660;28;20033;-72
2021/06/05 00:31:20;;;;;;;11.80;5.88;;;25.90;39.50;;;;;;5056798;28;20021;-72
2021/06/05 00:33:46;;;;;;;14.27;6.35;;;25.90;39.70;;;;;;5040648;28;20032;-74
2021/06/05 00:36:13;;;;;;;9.90;6.32;;;25.80;39.50;;;;;;5075082;28;20021;-72
2021/06/05 00:38:39;;;;;;;17.13;6.55;;;25.60;40.30;;;;;;5075148;28;20025;-71
2021/06/05 00:41:07;;;;;;;11.73;5.97;;;25.50;40.00;;;;;;5074896;28;20025;-72
2021/06/05 00:43:41;;;;;;;11.68;5.93;;;25.40;39.80;;;;;;5074770;28;20025;-72
2021/06/05 00:46:07;;;;;;;10.90;5.60;;;25.50;40.10;;;;;;5074897;28;20016;-71
2021/06/05 00:48:33;;;;;;;12.25;5.93;;;25.50;39.70;;;;;;5074914;28;20032;-71
2021/06/05 00:51:00;;;;;;;9.20;5.75;;;25.40;39.80;;;;;;5074819;28;20025;-72
2021/06/05 00:53:28;;;;;;;16.42;5.35;;;25.50;39.90;;;;;;5057013;28;20024;-72
2021/06/05 00:55:58;;;;;;;14.85;5.55;;;25.40;40.00;;;;;;5074249;28;20438;-71
2021/06/05 00:58:25;;;;;;;11.65;5.88;;;25.40;40.00;;;;;;5074351;28;20083;-72
2021/06/05 01:00:59;;;;;;;13.88;6.00;;;25.50;39.90;;;;;;5074845;28;20108;-72
2021/06/05 01:03:25;;;;;;;11.43;5.75;;;25.50;39.90;;;;;;5074591;28;20020;-73
2021/06/05 01:05:58;;;;;;;16.25;5.47;;;25.40;39.70;;;;;;5056402;28;20492;-72
2021/06/05 01:08:42;;;;;;;9.40;4.70;;;25.30;39.70;;;;;;5074578;28;20047;-72
2021/06/05 01:11:15;;;;;;;16.35;5.47;;;25.20;38.70;;;;;;5074676;28;20400;-71
2021/06/05 01:13:53;;;;;;;13.20;5.20;;;25.20;38.70;;;;;;5074316;28;20072;-71
2021/06/05 01:16:22;;;;;;;8.85;4.72;;;25.30;38.80;;;;;;5074490;28;20388;-71
2021/06/05 01:19:01;;;;;;;11.13;5.03;;;25.10;39.80;;;;;;5074275;28;20032;-71
2021/06/05 01:21:48;;;;;;;10.15;5.43;;;25.20;39.40;;;;;;5074076;28;20036;-71
2021/06/05 01:24:26;;;;;;;9.77;4.90;;;25.00;38.50;;;;;;5074091;28;20031;-71
2021/06/05 01:27:09;;;;;;;10.63;5.38;;;25.10;39.70;;;;;;5074160;28;20036;-71
2021/06/05 01:29:39;;;;;;;9.30;5.28;;;25.10;39.70;;;;;;5073968;28;20115;-72
2021/06/05 01:32:07;;;;;;;6.57;3.90;;;25.00;39.50;;;;;;5055638;28;20056;-72
2021/06/05 01:34:38;;;;;;;7.22;4.80;;;25.10;39.30;;;;;;5074159;28;20096;-71
2021/06/05 01:37:07;;;;;;;10.55;5.22;;;25.00;39.50;;;;;;5074181;28;20033;-73
2021/06/05 01:39:37;;;;;;;15.75;5.38;;;24.90;39.50;;;;;;5055697;28;20020;-72
2021/06/05 01:42:07;;;;;;;10.77;5.50;;;25.00;39.50;;;;;;5073844;28;20090;-71
2021/06/05 01:44:34;;;;;;;10.50;4.68;;;24.90;39.30;;;;;;5072897;28;20055;-72
2021/06/05 01:47:02;;;;;;;9.35;4.90;;;24.80;39.60;;;;;;5073606;28;20033;-72
2021/06/05 01:49:28;;;;;;;9.68;4.47;;;25.00;39.30;;;;;;5055866;28;20024;-71
2021/06/05 01:51:58;;;;;;;7.75;4.32;;;24.90;39.60;;;;;;5055907;28;20031;-72
2021/06/05 01:54:34;;;;;;;9.80;4.30;;;24.70;39.90;;;;;;5073690;28;20461;-72
2021/06/05 01:57:04;;;;;;;8.45;4.07;;;24.60;40.00;;;;;;5055588;28;20039;-72
2021/06/05 01:59:30;;;;;;;9.98;4.00;;;24.50;40.00;;;;;;5073709;28;20025;-71
2021/06/05 02:01:57;;;;;;;10.48;4.93;;;24.50;40.20;;;;;;5055942;28;20441;-71
2021/06/05 02:04:23;;;;;;;8.02;4.30;;;24.50;40.30;;;;;;5073269;28;20016;-71
2021/06/05 02:06:50;;;;;;;9.25;3.95;;;24.50;40.20;;;;;;5073810;28;20136;-71
2021/06/05 02:09:19;;;;;;;8.98;4.07;;;24.60;40.40;;;;;;5073078;28;20515;-71
2021/06/05 02:12:11;;;;;;;7.25;3.88;;;24.60;40.20;;;;;;5055556;28;20024;-71
2021/06/05 02:14:55;;;;;;;9.52;3.70;;;24.50;40.50;;;;;;5072093;28;20040;-71
2021/06/05 02:17:22;;;;;;;;;;;24.40;40.40;;;;;;5073446;28;20031;-72
2021/06/05 02:19:54;;;;;;;6.80;3.60;;;24.30;41.50;;;;;;5056522;28;19904;-70
2021/06/05 02:22:23;;;;;;;6.50;3.88;;;24.40;40.30;;;;;;5081654;28;20052;-71
2021/06/05 02:24:55;;;;;;;9.30;3.78;;;24.40;40.40;;;;;;5056205;28;20028;-72
2021/06/05 02:27:24;;;;;;;9.30;3.78;;;24.20;40.80;;;;;;5072753;28;20021;-72
2021/06/05 02:29:51;;;;;;;7.47;3.95;;;24.30;40.70;;;;;;5072449;28;20079;-71
2021/06/05 02:32:22;;;;;;;9.30;4.80;;;24.40;40.60;;;;;;5054854;28;20023;-71
2021/06/05 02:34:50;;;;;;;7.68;4.40;;;24.50;40.40;;;;;;5072495;28;20396;-72
2021/06/05 02:37:18;;;;;;;6.55;4.00;;;24.60;40.70;;;;;;5072874;28;20044;-72
2021/06/05 02:39:43;;;;;;;7.82;4.43;;;24.80;40.80;;;;;;5072647;28;20024;-72
2021/06/05 02:42:20;;;;;;;11.95;4.68;;;24.90;40.40;;;;;;5073269;28;20024;-71
2021/06/05 02:44:50;;;;;;;8.23;4.38;;;25.00;40.20;;;;;;5072605;28;20477;-71
2021/06/05 02:47:17;;;;;;;8.88;4.50;;;25.00;40.20;;;;;;5072370;28;20502;-71
2021/06/05 02:49:43;;;;;;;6.70;4.30;;;25.00;40.30;;;;;;5054248;28;20431;-71
2021/06/05 02:52:33;;;;;;;6.90;4.35;;;24.80;40.00;;;;;;5072589;28;20033;-72
2021/06/05 02:55:06;;;;;;;9.65;4.50;;;24.80;39.30;;;;;;5072767;28;20088;-71
2021/06/05 02:57:33;;;;;;;14.18;4.40;;;24.80;39.10;;;;;;5072515;28;20055;-71
2021/06/05 02:59:59;;;;;;;8.48;4.50;;;24.80;40.20;;;;;;5054404;28;20493;-71
2021/06/05 03:02:25;;;;;;;10.27;4.30;;;24.80;40.20;;;;;;5072838;28;20032;-72
2021/06/05 03:04:51;;;;;;;8.88;4.22;;;24.70;40.00;;;;;;5072089;28;20020;-70
2021/06/05 03:07:16;;;;;;;8.82;4.07;;;24.60;40.20;;;;;;5054579;28;20543;-72
2021/06/05 03:09:43;;;;;;;9.38;4.18;;;24.40;40.80;;;;;;5072245;28;20024;-72
2021/06/05 03:12:13;;;;;;;9.88;4.07;;;24.30;40.90;;;;;;5072619;28;20114;-72
2021/06/05 03:14:40;;;;;;;7.78;4.28;;;24.30;40.90;;;;;;5072707;28;20021;-72
2021/06/05 03:17:08;;;;;;;9.45;4.30;;;24.20;41.20;;;;;;5072024;28;20033;-71
2021/06/05 03:19:36;;;;;;;10.18;4.43;;;24.30;41.00;;;;;;5072773;28;20027;-71
2021/06/05 03:22:03;;;;;;;10.10;4.47;;;24.30;40.00;;;;;;5072423;28;20045;-72
2021/06/05 03:24:30;;;;;;;7.93;4.00;;;24.30;40.40;;;;;;5071919;28;20025;-72
2021/06/05 03:26:56;;;;;;;5.97;4.35;;;24.20;39.60;;;;;;5071993;28;20028;-71
2021/06/05 03:29:22;;;;;;;10.52;4.28;;;23.90;40.60;;;;;;5072740;28;20366;-72
2021/06/05 03:31:49;;;;;;;8.05;4.22;;;23.80;40.80;;;;;;5072529;28;20036;-73
2021/06/05 03:34:14;;;;;;;7.40;4.32;;;23.80;41.00;;;;;;5072941;28;20488;-72
2021/06/05 03:36:40;;;;;;;8.20;4.47;;;23.80;40.90;;;;;;5072288;28;20024;-71
2021/06/05 03:39:07;;;;;;;11.68;4.50;;;23.80;40.80;;;;;;5072832;28;20033;-72
2021/06/05 03:41:34;;;;;;;7.13;4.10;;;24.00;41.00;;;;;;5072075;28;20021;-71
2021/06/05 03:44:00;;;;;;;7.47;4.47;;;24.10;40.90;;;;;;5071624;28;20025;-71
2021/06/05 03:46:26;;;;;;;8.27;4.18;;;24.00;40.80;;;;;;5071341;28;20036;-72
2021/06/05 03:48:52;;;;;;;8.90;4.85;;;24.00;40.80;;;;;;5072160;28;20029;-71
2021/06/05 03:51:18;;;;;;;8.38;3.90;;;24.10;40.80;;;;;;5072150;28;20051;-71
2021/06/05 03:53:44;;;;;;;7.25;4.13;;;24.00;41.00;;;;;;5071761;28;20070;-71
2021/06/05 03:56:10;;;;;;;7.03;4.18;;;23.90;40.80;;;;;;5071900;28;20028;-72
2021/06/05 03:58:41;;;;;;;8.63;4.22;;;23.80;41.10;;;;;;5071400;28;20401;-72
2021/06/05 04:01:19;;;;;;;7.68;4.10;;;23.80;41.20;;;;;;5054069;28;20112;-73
2021/06/05 04:03:46;;;;;;;8.63;4.30;;;23.80;41.50;;;;;;5071931;28;20028;-73
2021/06/05 04:06:13;;;;;;;11.93;4.07;;;23.70;41.20;;;;;;5054001;28;20029;-72
2021/06/05 04:08:39;;;;;;;12.85;4.10;;;23.80;41.70;;;;;;5075676;28;20472;-71
2021/06/05 04:11:06;;;;;;;8.68;3.65;;;23.90;41.50;;;;;;5057692;28;20039;-71
2021/06/05 04:13:32;;;;;;;6.45;3.53;;;24.00;41.20;;;;;;5075434;28;20099;-71
2021/06/05 04:15:59;;;;;;;8.45;3.90;;;24.10;41.30;;;;;;5074891;28;20473;-72
2021/06/05 04:18:34;;;;;;;10.88;4.05;;;24.20;41.30;;;;;;5074971;28;20489;-72
2021/06/05 04:21:01;;;;;;;12.68;5.05;;;24.40;39.90;;;;;;5075619;28;20444;-71
2021/06/05 04:23:28;;;;;;;7.47;3.80;;;24.50;41.20;;;;;;5075256;28;20071;-73
2021/06/05 04:25:54;;;;;;;8.00;4.03;;;24.60;40.90;;;;;;5056745;28;20040;-71
2021/06/05 04:28:23;;;;;;;12.60;4.13;;;24.40;40.90;;;;;;5075131;28;20033;-71
2021/06/05 04:30:49;;;;;;;6.45;3.90;;;24.40;40.80;;;;;;5057447;28;20024;-72
2021/06/05 04:33:17;;;;;;;7.80;3.90;;;24.20;40.90;;;;;;5075733;28;20050;-72
2021/06/05 04:35:44;;;;;;;11.18;4.00;;;24.00;41.30;;;;;;5075507;28;20465;-72
2021/06/05 04:38:11;;;;;;;9.75;3.80;;;23.90;41.40;;;;;;5056726;28;20426;-72
2021/06/05 04:40:40;;;;;;;9.40;3.83;;;23.80;41.70;;;;;;5075548;28;20028;-71
2021/06/05 04:43:06;;;;;;;9.05;3.65;;;23.90;41.90;;;;;;5075036;28;20029;-71
2021/06/05 04:45:33;;;;;;;8.80;3.70;;;23.90;42.00;;;;;;5075421;28;20024;-70
2021/06/05 04:47:59;;;;;;;11.38;4.15;;;24.20;41.60;;;;;;5057196;28;20469;-71
2021/06/05 04:50:29;;;;;;;11.00;4.40;;;24.30;41.40;;;;;;5075926;28;20059;-72
2021/06/05 04:52:56;;;;;;;8.52;4.05;;;24.40;41.70;;;;;;5081683;28;20102;-72
2021/06/05 04:55:22;;;;;;;6.38;3.58;;;24.40;40.10;;;;;;5095320;28;20036;-71
2021/06/05 04:57:48;;;;;;;9.25;4.20;;;24.40;41.50;;;;;;5077412;28;20025;-71
2021/06/05 05:00:18;;;;;;;6.78;4.03;;;24.40;41.50;;;;;;5075532;28;20017;-70
2021/06/05 05:02:44;;;;;;;8.02;4.20;;;24.40;41.30;;;;;;5074635;28;20139;-71
2021/06/05 05:05:10;;;;;;;7.68;4.30;;;24.40;41.70;;;;;;5074718;28;20088;-72
2021/06/05 05:07:36;;;;;;;6.93;3.50;;;24.40;41.10;;;;;;5056313;28;20040;-71
2021/06/05 05:10:05;;;;;;;8.77;3.60;;;24.40;41.70;;;;;;5075139;28;20020;-71
2021/06/05 05:12:30;;;;;;;14.70;4.50;;;24.40;42.20;;;;;;5074428;28;20091;-71
2021/06/05 05:14:56;;;;;;;7.68;4.22;;;24.30;42.00;;;;;;5074492;28;20013;-71
2021/06/05 05:17:23;;;;;;;8.70;4.35;;;24.20;42.10;;;;;;5074451;28;20523;-72
2021/06/05 05:19:49;;;;;;;8.73;3.63;;;24.10;42.40;;;;;;5074603;28;20052;-72
2021/06/05 05:22:14;;;;;;;8.48;4.00;;;24.30;42.50;;;;;;5074048;28;20071;-72
2021/06/05 05:24:40;;;;;;;9.38;4.38;;;24.30;42.30;;;;;;5074511;28;20024;-71
2021/06/05 05:27:07;;;;;;;7.53;3.80;;;24.20;42.40;;;;;;5056072;28;20205;-72
2021/06/05 05:29:33;;;;;;;12.73;4.10;;;24.10;42.70;;;;;;5073999;28;20133;-72
2021/06/05 05:31:59;;;;;;;7.20;4.18;;;24.10;43.40;;;;;;5074246;28;20505;-73
2021/06/05 05:34:25;;;;;;;10.60;4.10;;;24.00;43.50;;;;;;5074079;28;20029;-73
2021/06/05 05:36:51;;;;;;;10.32;4.03;;;24.00;43.80;;;;;;5073655;28;20450;-72
2021/06/05 05:39:18;;;;;;;11.63;4.15;;;24.10;44.00;;;;;;5073718;28;20027;-71
2021/06/05 05:41:44;;;;;;;10.07;4.25;;;24.00;44.10;;;;;;5073646;28;20017;-72
2021/06/05 05:44:10;;;;;;;9.38;4.53;;;24.10;43.80;;;;;;5073998;28;20061;-71
2021/06/05 05:46:37;;;;;;;9.55;5.05;;;24.30;43.70;;;;;;5055397;28;20064;-71
2021/06/05 05:49:04;;;;;;;10.20;4.13;;;24.30;43.60;;;;;;5073464;28;20207;-71
2021/06/05 05:51:31;;;;;;;8.13;3.90;;;24.30;43.60;;;;;;5073373;28;20028;-70
2021/06/05 05:53:56;;;;;;;10.95;4.47;;;24.50;43.20;;;;;;5055542;28;20354;-73
2021/06/05 05:56:25;;;;;;;8.98;4.15;;;24.70;43.30;;;;;;5055202;28;20031;-73
2021/06/05 05:58:53;;;;;;;10.50;3.60;;;24.90;43.40;;;;;;5054956;28;20017;-72
2021/06/05 06:01:20;;;;;;;14.70;5.07;;;24.90;43.20;;;;;;5072970;28;20021;-72
2021/06/05 06:03:51;;;;;;;8.70;5.07;;;24.80;43.30;;;;;;5073358;28;20024;-74
2021/06/05 06:06:18;;;;;;;7.55;4.70;;;25.00;43.80;;;;;;5073043;28;20032;-73
2021/06/05 06:08:44;;;;;;;11.65;4.30;;;25.30;43.40;;;;;;5073286;28;20434;-72
2021/06/05 06:11:12;;;;;;;11.05;4.65;;;25.40;42.80;;;;;;5073007;28;20020;-73
2021/06/05 06:13:38;;;;;;;16.13;5.75;;;25.60;43.00;;;;;;5055226;28;20481;-73
2021/06/05 06:16:07;;;;;;;9.90;5.55;;;25.70;42.40;;;;;;5072969;28;20473;-72
2021/06/05 06:18:34;;;;;;;11.10;5.13;;;25.60;43.00;;;;;;5054850;28;20098;-71
2021/06/05 06:20:59;;;;;;;12.43;5.13;;;25.60;42.90;;;;;;5072771;28;20049;-72
2021/06/05 06:23:30;;;;;;;11.45;4.72;;;25.60;42.60;;;;;;5072911;28;20042;-72
2021/06/05 06:25:59;;;;;;;11.82;5.03;;;25.30;41.70;;;;;;5072813;28;20029;-71
2021/06/05 06:28:27;;;;;;;8.32;4.45;;;25.30;43.60;;;;;;5054761;28;20068;-71
2021/06/05 06:30:54;;;;;;;13.20;4.88;;;25.20;43.60;;;;;;5072209;28;20024;-72
2021/06/05 06:33:20;;;;;;;12.48;4.97;;;25.10;43.60;;;;;;5054859;28;20033;-72
2021/06/05 06:35:47;;;;;;;11.90;4.53;;;25.00;43.70;;;;;;5072450;28;20023;-72
2021/06/05 06:38:16;;;;;;;10.25;5.15;;;25.00;43.90;;;;;;5073556;28;20031;-71
2021/06/05 06:40:42;;;;;;;12.32;4.63;;;25.00;43.90;;;;;;5073426;28;20473;-71
2021/06/05 06:43:11;;;;;;;11.52;4.88;;;25.10;43.90;;;;;;5073556;28;20028;-74
2021/06/05 06:45:36;;;;;;;13.85;5.10;;;25.20;43.90;;;;;;5073221;28;20052;-72
2021/06/05 06:48:02;;;;;;;12.75;4.97;;;25.20;43.70;;;;;;5073619;28;20114;-73
2021/06/05 06:50:30;;;;;;;11.93;5.28;;;25.30;43.30;;;;;;5074266;28;20037;-71
2021/06/05 06:52:56;;;;;;;12.20;4.68;;;25.10;43.60;;;;;;5072925;28;20078;-72
2021/06/05 06:55:23;;;;;;;15.65;5.95;;;25.00;43.80;;;;;;5054986;28;20048;-73
2021/06/05 06:57:49;;;;;;;11.23;6.07;;;25.00;43.80;;;;;;5072868;28;20064;-71
2021/06/05 07:00:25;;;;;;;14.63;6.90;;;25.00;43.80;;;;;;5073156;28;20050;-75
2021/06/05 07:02:51;;;;;;;10.98;5.90;;;25.10;42.60;;;;;;5072809;28;20021;-71
2021/06/05 07:05:16;;;;;;;14.07;5.65;;;25.40;43.50;;;;;;5072834;28;20051;-74
2021/06/05 07:07:42;;;;;;;19.27;6.38;;;25.60;43.10;;;;;;5072645;28;20089;-75
2021/06/05 07:10:12;;;;;;;13.52;5.75;;;25.80;43.30;;;;;;5054751;28;20016;-71
2021/06/05 07:12:38;;;;;;;13.80;6.00;;;25.90;43.60;;;;;;5061830;28;20044;-73
2021/06/05 07:15:05;;;;;;;12.55;5.47;;;25.90;43.20;;;;;;5034112;28;20025;-71
2021/06/05 07:17:31;;;;;;;17.98;5.95;;;25.90;43.00;;;;;;5052232;28;20029;-71
2021/06/05 07:19:57;;;;;;;12.05;6.05;;;25.80;43.30;;;;;;5052515;28;20024;-70
2021/06/05 07:22:23;;;;;;;15.32;5.75;;;25.70;43.50;;;;;;5052190;28;20486;-71
2021/06/05 07:24:49;;;;;;;10.48;5.80;;;25.70;43.60;;;;;;5052625;28;20029;-70
2021/06/05 07:27:15;;;;;;;11.63;5.05;;;25.60;43.50;;;;;;5051830;28;20025;-71
2021/06/05 07:29:41;;;;;;;13.75;5.15;;;25.70;43.90;;;;;;5052174;28;20033;-71
2021/06/05 07:32:07;;;;;;;10.90;5.43;;;25.70;43.40;;;;;;5052300;28;20025;-70
2021/06/05 07:34:34;;;;;;;7.38;4.18;;;25.70;43.20;;;;;;5060075;28;20033;-71
2021/06/05 07:37:08;;;;;;;15.07;4.85;;;25.70;42.70;;;;;;5062046;28;20073;-70
2021/06/05 07:39:34;;;;;;;;;;;25.70;44.20;;;;;;5060235;28;20517;-71
2021/06/05 07:42:01;;;;;;;10.10;4.57;;;25.70;45.10;;;;;;5053193;28;20288;-70
2021/06/05 07:44:29;;;;;;;11.10;4.35;;;25.70;44.90;;;;;;5038014;28;20492;-70
2021/06/05 07:46:57;;;;;;;8.48;5.00;;;25.70;44.80;;;;;;5037869;28;20032;-70
2021/06/05 07:49:37;;;;;;;12.10;5.18;;;25.70;45.20;;;;;;5058915;28;20401;-70
2021/06/05 07:52:06;;;;;;;13.23;5.63;;;25.80;44.90;;;;;;5067724;28;20122;-71
2021/06/05 07:54:31;;;;;;;8.85;4.70;;;25.70;44.50;;;;;;5072573;28;20092;-71
2021/06/05 07:57:17;;;;;;;13.73;4.43;;;25.60;45.10;;;;;;5069435;28;20109;-71
2021/06/05 07:59:43;;;;;;;9.63;4.38;;;25.70;45.00;;;;;;5075365;28;20104;-70
2021/06/05 08:02:10;;;;;;;11.00;4.60;;;25.70;45.00;;;;;;5056914;28;20028;-72
2021/06/05 08:04:37;;;;;;;9.18;4.90;;;25.70;45.50;;;;;;5075522;28;20043;-69
2021/06/05 08:07:23;;;;;;;9.68;5.13;;;25.90;44.80;;;;;;5074892;28;20401;-70
2021/06/05 08:09:53;;;;;;;10.68;5.22;;;26.00;44.10;;;;;;5075428;28;20025;-71
2021/06/05 08:12:20;;;;;;;8.52;4.00;;;26.10;43.80;;;;;;5075432;28;20036;-71
2021/06/05 08:14:48;;;;;;;8.30;4.10;;;26.10;43.70;;;;;;5074901;28;20495;-67
2021/06/05 08:17:15;;;;;;;7.47;3.70;;;26.20;43.80;;;;;;5074797;28;20036;-70
2021/06/05 08:19:43;;;;;;;9.95;4.35;;;26.30;43.60;;;;;;5074822;28;20024;-68
2021/06/05 08:22:11;;;;;;;7.03;4.30;;;26.30;42.80;;;;;;5074464;28;20114;-68
2021/06/05 08:24:37;;;;;;;12.55;4.60;;;26.40;43.20;;;;;;5071293;28;20054;-68
2021/06/05 08:27:04;;;;;;;16.65;4.78;;;26.40;42.60;;;;;;5074557;28;20035;-68
2021/06/05 08:29:30;;;;;;;7.00;3.95;;;26.40;42.70;;;;;;5074296;28;20052;-67
2021/06/05 08:31:56;;;;;;;10.13;4.60;;;26.50;42.80;;;;;;5074372;28;20033;-70
2021/06/05 08:34:23;;;;;;;10.88;4.25;;;26.40;42.50;;;;;;5074633;28;20078;-67
2021/06/05 08:36:49;;;;;;;7.95;4.43;;;26.40;42.90;;;;;;5071201;28;20087;-73
2021/06/05 08:39:15;;;;;;;7.97;4.75;;;26.40;42.90;;;;;;5074064;28;20029;-72
2021/06/05 08:41:50;;;;;;;8.20;3.80;;;26.40;43.20;;;;;;5032149;28;20041;-71
2021/06/05 08:44:34;;;;;;;6.20;3.78;;;26.40;42.80;;;;;;5036466;28;20082;-72
2021/06/05 08:47:04;;;;;;;8.52;3.78;;;26.40;42.70;;;;;;5053845;28;20074;-72
2021/06/05 08:49:34;;;;;;;6.95;3.67;;;26.50;42.00;;;;;;5053410;28;20374;-72
2021/06/05 08:52:25;;;;;;;6.85;3.35;;;26.70;42.60;;;;;;5052799;28;20112;-72
2021/06/05 08:55:04;;;;;;;6.90;3.20;;;26.80;40.70;;;;;;5053891;28;20489;-71
2021/06/05 08:57:39;;;;;;;9.05;3.60;;;26.80;40.70;;;;;;5053380;28;20078;-72
2021/06/05 09:00:26;;;;;;;5.97;3.15;;;26.90;41.20;;;;;;5035602;28;20059;-72
2021/06/05 09:02:59;;;;;;;8.60;3.75;;;27.00;41.60;;;;;;5038752;28;20483;-71
2021/06/05 09:05:39;;;;;;;6.90;3.83;;;27.10;42.10;;;;;;5036078;28;20061;-71
2021/06/05 09:08:08;;;;;;;7.57;3.20;;;27.00;44.20;;;;;;5036212;28;20124;-73
2021/06/05 09:10:35;;;;;;;6.50;4.03;;;26.90;43.70;;;;;;5054397;28;20025;-70
2021/06/05 09:13:01;;;;;;;7.30;3.75;;;26.90;45.00;;;;;;5036286;28;20090;-73
2021/06/05 09:15:34;;;;;;;6.35;3.33;;;27.00;44.20;;;;;;5054135;28;20044;-72
2021/06/05 09:18:05;;;;;;;7.32;3.25;;;26.90;44.40;;;;;;5054205;28;20078;-75
2021/06/05 09:20:44;;;;;;;10.68;3.70;;;26.80;45.30;;;;;;5054381;28;20032;-73
2021/06/05 09:23:34;;;;;;;8.02;3.65;;;26.80;45.60;;;;;;5054113;28;20493;-74
2021/06/05 09:26:29;;;;;;;6.38;3.25;;;27.00;45.20;;;;;;5054028;28;20511;-72
2021/06/05 09:29:16;;;;;;;6.70;3.30;;;27.30;44.80;;;;;;5053997;28;20044;-71
2021/06/05 09:32:10;;;;;;;10.77;3.65;;;27.50;44.90;;;;;;5053977;28;20029;-71
2021/06/05 09:34:42;;;;;;;5.95;3.38;;;27.50;44.30;;;;;;5035938;28;20029;-72
2021/06/05 09:37:29;;;;;;;6.20;3.53;;;27.60;44.60;;;;;;5053793;28;20025;-71
2021/06/05 09:40:22;;;;;;;6.38;3.60;;;27.60;44.10;;;;;;5057930;28;20080;-71
2021/06/05 09:42:53;;;;;;;8.20;3.60;;;27.60;44.50;;;;;;5055145;28;20493;-69
2021/06/05 09:45:22;;;;;;;7.28;3.50;;;27.70;44.40;;;;;;5073326;28;20017;-69
2021/06/05 09:47:51;;;;;;;10.13;3.97;;;27.80;44.40;;;;;;5073022;28;20024;-69
2021/06/05 09:50:38;;;;;;;8.88;3.53;;;27.70;44.50;;;;;;5073455;28;20366;-68
2021/06/05 09:53:17;;;;;;;6.53;3.95;;;27.70;44.70;;;;;;5073352;28;20381;-70
2021/06/05 09:55:45;;;;;;;9.30;3.88;;;27.70;44.10;;;;;;5056108;28;20032;-69
2021/06/05 09:58:38;;;;;;;9.88;3.50;;;27.80;44.80;;;;;;5073663;28;20039;-70
2021/06/05 10:01:25;;;;;;;11.50;3.80;;;27.80;44.40;;;;;;5073358;28;20028;-70
2021/06/05 10:03:56;;;;;;;9.48;3.58;;;27.80;44.00;;;;;;5063251;28;20398;-72
2021/06/05 10:06:56;;;;;;;6.10;2.97;;;27.80;44.60;;;;;;5058840;28;20036;-73
2021/06/05 10:09:31;;;;;;;5.47;3.67;;;27.80;43.40;;;;;;5036804;28;20136;-70
2021/06/05 10:11:59;;;;;;;8.45;3.38;;;27.80;44.40;;;;;;5052935;28;20418;-72
2021/06/05 10:14:59;;;;;;;8.23;3.00;;;27.70;43.90;;;;;;5065012;28;20032;-70
2021/06/05 10:18:19;;;;;;;6.03;2.95;;;27.70;43.20;;;;;;5054116;28;20067;-70
2021/06/05 10:21:06;;;;;;;8.02;3.60;;;27.70;43.60;;;;;;5032020;28;20033;-70
2021/06/05 10:23:37;;;;;;;5.80;3.10;;;27.90;43.60;;;;;;5072456;28;20036;-74
2021/06/05 10:26:29;;;;;;;7.05;3.33;;;27.90;43.10;;;;;;5072520;28;20032;-72
2021/06/05 10:29:01;;;;;;;21.80;16.10;;;28.10;42.60;;;;;;5061361;28;20116;-72
2021/06/05 10:31:27;;;;;;;8.55;4.35;;;28.20;42.70;;;;;;5072132;28;20024;-72
2021/06/05 10:33:56;;;;;;;7.60;3.15;;;28.20;42.50;;;;;;5066102;28;20043;-73
2021/06/05 10:36:25;;;;;;;6.65;3.30;;;28.20;42.40;;;;;;5051938;28;20028;-73
2021/06/05 10:39:02;;;;;;;8.23;3.38;;;28.20;42.20;;;;;;5052260;28;20088;-72
2021/06/05 10:41:32;;;;;;;6.35;3.83;;;28.30;42.20;;;;;;5052249;28;20081;-76
2021/06/05 10:44:03;;;;;;;11.27;3.85;;;28.40;42.90;;;;;;5052291;28;20032;-81
2021/06/05 10:46:49;;;;;;;8.52;3.33;;;28.50;42.90;;;;;;5052039;28;20039;-71
2021/06/05 10:49:42;;;;;;;7.32;3.67;;;28.40;42.30;;;;;;5052216;28;20044;-70
2021/06/05 10:52:41;;;;;;;28.70;5.28;;;28.40;42.60;;;;;;5045976;28;20064;-71
2021/06/05 10:55:16;;;;;;;39.92;7.53;;;28.50;43.00;;;;;;5052304;28;20021;-72
2021/06/05 10:57:48;;;;;;;8.38;3.63;;;28.50;43.60;;;;;;5052181;28;20548;-72
2021/06/05 11:00:42;;;;;;;10.32;3.53;;;28.50;43.80;;;;;;5035133;28;20029;-76
2021/06/05 11:03:44;;;;;;;6.43;3.65;;;28.30;43.40;;;;;;5052504;28;20040;-72
2021/06/05 11:06:24;;;;;;;9.95;3.78;;;28.10;43.30;;;;;;5033840;28;20493;-77
2021/06/05 11:08:59;;;;;;;6.28;3.55;;;27.90;43.50;;;;;;5051971;28;20040;-73
2021/06/05 11:11:45;;;;;;;7.18;3.75;;;28.00;43.90;;;;;;5052123;28;20025;-66
2021/06/05 11:14:20;;;;;;;5.75;3.70;;;28.00;43.50;;;;;;5052197;28;20044;-71
2021/06/05 11:17:01;;;;;;;6.95;3.58;;;27.80;44.20;;;;;;5036822;28;20413;-73
2021/06/05 11:19:51;;;;;;;10.35;3.80;;;27.80;44.90;;;;;;5056650;28;20096;-73
2021/06/05 11:22:27;;;;;;;9.38;4.40;;;27.70;45.20;;;;;;5038296;28;20051;-70
2021/06/05 11:25:08;;;;;;;8.15;5.97;;;27.80;46.70;;;;;;5056357;28;20032;-73
2021/06/05 11:27:53;;;;;;;8.15;4.90;;;27.80;45.00;;;;;;5056369;28;20516;-77
2021/06/05 11:30:22;;;;;;;9.40;4.18;;;27.90;45.20;;;;;;5038114;28;20469;-72
2021/06/05 11:32:59;;;;;;;6.18;3.97;;;27.90;45.10;;;;;;5056223;28;20029;-72
2021/06/05 11:35:59;;;;;;;8.18;4.20;;;27.90;45.30;;;;;;5055952;28;20053;-74
2021/06/05 11:38:25;;;;;;;7.93;3.65;;;27.90;45.60;;;;;;5055189;28;20501;-73
2021/06/05 11:41:09;;;;;;;10.20;3.90;;;28.00;45.60;;;;;;5055746;28;20021;-73
2021/06/05 11:43:47;;;;;;;7.93;4.10;;;28.10;45.60;;;;;;5065781;28;20055;-74
2021/06/05 11:46:22;;;;;;;7.93;4.00;;;28.10;44.70;;;;;;5058311;28;20028;-72
2021/06/05 11:49:00;;;;;;;8.00;3.85;;;28.00;45.10;;;;;;5075712;28;20100;-72
2021/06/05 11:51:54;;;;;;;9.75;4.78;;;28.10;45.30;;;;;;5075876;28;20031;-75
2021/06/05 11:54:22;;;;;;;10.27;4.13;;;28.10;45.30;;;;;;5071402;28;20041;-71
2021/06/05 11:57:09;;;;;;;8.00;3.75;;;28.20;46.10;;;;;;5075485;28;20469;-71
2021/06/05 11:59:44;;;;;;;11.60;4.05;;;28.10;45.60;;;;;;5076981;28;20051;-75
2021/06/05 12:02:35;;;;;;;7.55;4.40;;;27.80;44.90;;;;;;5078703;28;20321;-74
2021/06/05 12:05:35;;;;;;;8.68;3.92;;;27.90;46.10;;;;;;5072404;28;20020;-72
2021/06/05 12:08:25;;;;;;;7.03;3.90;;;27.90;45.40;;;;;;5057177;28;20056;-74
2021/06/05 12:10:57;;;;;;;7.63;3.83;;;27.90;45.10;;;;;;5041756;28;20044;-74
2021/06/05 12:13:35;;;;;;;8.77;3.58;;;27.90;45.70;;;;;;5058396;28;20056;-76
2021/06/05 12:16:21;;;;;;;9.02;3.40;;;28.00;45.80;;;;;;5075260;28;20032;-78
2021/06/05 12:18:49;;;;;;;7.18;3.72;;;28.00;44.70;;;;;;5075501;28;20016;-75
2021/06/05 12:21:26;;;;;;;6.43;3.70;;;27.90;45.10;;;;;;5075498;28;20469;-78
2021/06/05 12:23:52;;;;;;;9.73;3.60;;;28.00;44.90;;;;;;5075567;28;20035;-77
2021/06/05 12:26:29;;;;;;;6.30;3.28;;;28.10;44.90;;;;;;5075460;28;20077;-75
2021/06/05 12:29:09;;;;;;;9.05;3.78;;;28.30;44.90;;;;;;5074384;28;20189;-81
2021/06/05 12:31:41;;;;;;;7.00;3.55;;;28.50;44.90;;;;;;5075801;28;20496;-76
2021/06/05 12:34:27;;;;;;;;;;;28.60;44.60;;;;;;5075621;28;20040;-76
2021/06/05 12:37:04;;;;;;;6.78;3.58;;;28.70;43.80;;;;;;5073038;28;19905;-77
2021/06/05 12:39:30;;;;;;;10.45;3.63;;;28.60;44.50;;;;;;5045750;28;20046;-76
2021/06/05 12:41:56;;;;;;;11.13;4.38;;;28.80;44.40;;;;;;5065644;28;20451;-73
2021/06/05 12:44:34;;;;;;;8.52;3.25;;;28.70;44.00;;;;;;5045553;28;20041;-71
2021/06/05 12:47:04;;;;;;;10.40;3.42;;;28.60;44.00;;;;;;5069890;28;20493;-70
2021/06/05 12:49:31;;;;;;;8.00;3.65;;;28.40;44.00;;;;;;5061420;28;20115;-79
2021/06/05 12:52:07;;;;;;;17.55;4.35;;;28.30;44.30;;;;;;5075147;28;20032;-76
2021/06/05 12:54:37;;;;;;;10.82;3.47;;;28.50;44.20;;;;;;5075133;28;20025;-75
2021/06/05 12:58:00;;;;;;;13.35;3.78;;;28.70;44.10;;;;;;5065240;28;20017;-74
2021/06/05 13:00:29;;;;;;;11.15;3.70;;;28.60;43.60;;;;;;4996267;28;20030;-72
2021/06/05 13:03:20;;;;;;;6.57;3.05;;;28.60;46.20;;;;;;4993231;28;20038;-75
2021/06/05 13:06:16;;;;;;;8.23;3.28;;;28.60;44.80;;;;;;5012456;28;20044;-73
2021/06/05 13:08:46;;;;;;;12.20;3.33;;;28.50;45.50;;;;;;5012588;28;20038;-74